TN25 weather

Methodist Hospital Central Heliport
Memphis, Tennessee, United States

Public forecast

Using degrees Fahrenheit for public forecast. Weather courtesy of forecast.io.

Closest aviation weather report (METAR) to Methodist Hospital Central Heliport

Closest report is Memphis International Airport, 6.0 nm (11.2 km) SSE. Retrieved 2019/10/21 01:54 UTC (15 minutes ago):

KMEM 210154Z 15010KT 10SM FEW026 FEW250 21/17 A2982 RMK AO2 SLP095 T02110167

Closest aviation forecast (TAF) to Methodist Hospital Central Heliport

Closest forecast is Memphis International Airport, 6.0 nm (11.2 km) SSE. Retrieved 2019-10-21 00:30 UTC (2 hours ago):

TAF KMEM 202328Z 2100/2206 11009KT P6SM BKN050 FM210600 17008KT P6SM VCSH OVC050 WS020/22045KT FM211200 19011G20KT 4SM TSRA BKN025CB OVC050 TEMPO 2113/2116 1SM TSRA FM211900 24014G22KT P6SM VCSH SCT007 OVC015 FM212200 29012G20KT P6SM OVC040 FM220000 26006KT P6SM FEW050